createdAt,value
2023-05-20T00:00:31.793Z,204.86
2023-05-20T00:01:31.774Z,196.86
2023-05-20T00:02:31.863Z,198.38
2023-05-20T00:03:31.821Z,198.19
2023-05-20T00:04:31.818Z,202.78
2023-05-20T00:05:31.788Z,207.73
2023-05-20T00:06:31.741Z,206.64
2023-05-20T00:07:31.742Z,212.90
2023-05-20T00:08:31.741Z,208.50
2023-05-20T00:09:31.705Z,204.26
2023-05-20T00:10:31.716Z,208.39
2023-05-20T00:11:31.746Z,209.86
2023-05-20T00:12:31.714Z,207.65
2023-05-20T00:13:31.706Z,205.35
2023-05-20T00:14:31.695Z,211.84
2023-05-20T00:15:32.040Z,211.76
2023-05-20T00:16:31.712Z,207.95
2023-05-20T00:17:31.713Z,216.92
2023-05-20T00:18:31.666Z,223.40
2023-05-20T00:19:31.669Z,219.37
2023-05-20T00:20:31.661Z,223.85
2023-05-20T00:21:31.670Z,219.16
2023-05-20T00:22:31.620Z,219.47
2023-05-20T00:23:31.617Z,214.70
2023-05-20T00:24:31.653Z,212.95
2023-05-20T00:25:31.822Z,213.96
2023-05-20T00:26:31.608Z,213.00
2023-05-20T00:27:31.585Z,214.36
2023-05-20T00:28:31.584Z,218.46
2023-05-20T00:29:31.578Z,225.01
2023-05-20T00:30:31.563Z,217.73
2023-05-20T00:31:31.608Z,217.71
2023-05-20T00:32:31.620Z,215.84
2023-05-20T00:33:31.559Z,218.43
2023-05-20T00:34:31.560Z,214.20
2023-05-20T00:35:31.627Z,217.99
2023-05-20T00:36:31.526Z,214.98
2023-05-20T00:37:31.543Z,219.48
2023-05-20T00:38:31.528Z,218.06
2023-05-20T00:39:31.510Z,215.32
2023-05-20T00:40:31.496Z,221.70
2023-05-20T00:41:31.502Z,230.97
2023-05-20T00:42:31.483Z,228.98
2023-05-20T00:43:31.519Z,235.82
2023-05-20T00:44:31.523Z,240.43
2023-05-20T00:45:31.543Z,243.79
2023-05-20T00:46:31.486Z,243.34
2023-05-20T00:47:31.470Z,247.71
2023-05-20T00:48:31.447Z,238.70
2023-05-20T00:49:31.451Z,240.81
2023-05-20T00:50:31.422Z,242.17
2023-05-20T00:51:31.414Z,245.82
2023-05-20T00:52:31.452Z,247.54
2023-05-20T00:53:31.420Z,243.69
2023-05-20T00:54:31.426Z,250.00
2023-05-20T00:55:31.491Z,248.16
2023-05-20T00:56:31.396Z,243.99
2023-05-20T00:57:31.388Z,239.75
2023-05-20T00:58:31.367Z,243.01
2023-05-20T00:59:31.364Z,237.45
2023-05-20T01:00:31.370Z,234.47
2023-05-20T01:01:31.369Z,237.73
2023-05-20T01:02:31.421Z,238.34
2023-05-20T01:03:31.517Z,225.57
2023-05-20T01:04:31.339Z,222.04
2023-05-20T01:05:31.446Z,225.41
2023-05-20T01:06:31.319Z,218.59
2023-05-20T01:07:31.332Z,219.72
2023-05-20T01:08:31.310Z,221.53
2023-05-20T01:09:31.306Z,216.98
2023-05-20T01:10:31.302Z,214.30
2023-05-20T01:11:31.294Z,208.11
2023-05-20T01:12:31.285Z,205.63
2023-05-20T01:13:31.269Z,215.83
2023-05-20T01:14:31.282Z,213.42
2023-05-20T01:15:31.281Z,205.01
2023-05-20T01:16:31.389Z,200.42
2023-05-20T01:17:31.330Z,202.30
2023-05-20T01:18:31.316Z,202.03
2023-05-20T01:19:31.255Z,198.50
2023-05-20T01:20:31.240Z,199.44
2023-05-20T01:21:31.232Z,202.57
2023-05-20T01:22:31.227Z,209.89
2023-05-20T01:23:31.227Z,218.84
2023-05-20T01:24:31.201Z,219.89
2023-05-20T01:25:31.198Z,221.40
2023-05-20T01:26:31.209Z,226.40
2023-05-20T01:27:31.188Z,226.49
2023-05-20T01:28:31.179Z,229.52
2023-05-20T01:29:31.181Z,232.23
2023-05-20T01:30:31.205Z,232.97
2023-05-20T01:31:31.231Z,236.08
2023-05-20T01:32:31.204Z,236.18
2023-05-20T01:33:31.164Z,230.95
2023-05-20T01:34:31.148Z,233.18
2023-05-20T01:35:31.144Z,234.98
2023-05-20T01:36:31.141Z,231.97
2023-05-20T01:37:31.163Z,235.07
2023-05-20T01:38:31.148Z,233.12
2023-05-20T01:39:31.170Z,237.37
2023-05-20T01:40:31.191Z,238.41
2023-05-20T01:41:31.208Z,239.14
2023-05-20T01:42:31.206Z,238.47
2023-05-20T01:43:31.236Z,246.53
2023-05-20T01:44:31.233Z,242.94
2023-05-20T01:45:31.352Z,239.82
2023-05-20T01:46:31.325Z,238.17
2023-05-20T01:47:31.306Z,239.48
2023-05-20T01:48:31.307Z,237.72
2023-05-20T01:49:31.300Z,244.00
2023-05-20T01:50:31.326Z,237.44
2023-05-20T01:51:31.354Z,232.26
2023-05-20T01:52:31.371Z,235.23
2023-05-20T01:53:31.391Z,231.46
2023-05-20T01:54:31.406Z,236.68
2023-05-20T01:55:31.416Z,237.54
2023-05-20T01:56:31.417Z,232.16
2023-05-20T01:57:31.435Z,235.53
2023-05-20T01:58:31.481Z,235.51
2023-05-20T01:59:31.458Z,236.11
2023-05-20T02:00:31.481Z,233.40
2023-05-20T02:01:31.548Z,236.40
2023-05-20T02:02:31.581Z,237.82
2023-05-20T02:03:31.548Z,239.16
2023-05-20T02:04:31.547Z,237.58
2023-05-20T02:05:31.636Z,237.87
2023-05-20T02:06:31.564Z,234.82
2023-05-20T02:07:31.585Z,242.12
2023-05-20T02:08:31.593Z,236.10
2023-05-20T02:09:31.644Z,241.18
2023-05-20T02:10:31.629Z,241.77
2023-05-20T02:11:31.653Z,247.97
2023-05-20T02:12:31.679Z,248.84
2023-05-20T02:13:31.689Z,242.68
2023-05-20T02:14:31.750Z,245.08
2023-05-20T02:15:31.832Z,249.40
2023-05-20T02:16:31.762Z,241.31
2023-05-20T02:17:31.754Z,239.75
2023-05-20T02:18:31.767Z,244.36
2023-05-20T02:19:31.820Z,242.65
2023-05-20T02:20:31.795Z,243.35
2023-05-20T02:21:31.813Z,244.98
2023-05-20T02:22:31.854Z,239.94
2023-05-20T02:23:31.871Z,240.83
2023-05-20T02:24:31.916Z,248.90
2023-05-20T02:25:31.951Z,241.13
2023-05-20T02:26:31.921Z,249.42
2023-05-20T02:27:31.927Z,251.34
2023-05-20T02:28:31.967Z,246.77
2023-05-20T02:29:31.969Z,246.12
2023-05-20T02:30:31.998Z,246.19
2023-05-20T02:31:32.005Z,247.31
2023-05-20T02:32:32.028Z,249.81
2023-05-20T02:33:32.076Z,250.00
2023-05-20T02:34:32.073Z,242.01
2023-05-20T02:35:32.198Z,246.28
2023-05-20T02:36:32.122Z,243.48
2023-05-20T02:37:32.137Z,247.93
2023-05-20T02:38:32.158Z,246.98
2023-05-20T02:39:32.158Z,245.46
2023-05-20T02:40:32.183Z,243.26
2023-05-20T02:41:32.208Z,246.54
2023-05-20T02:42:32.225Z,245.09
2023-05-20T02:43:32.253Z,244.88
2023-05-20T02:44:32.256Z,243.45
2023-05-20T02:45:32.271Z,244.59
2023-05-20T02:46:32.436Z,246.30
2023-05-20T02:47:32.329Z,245.83
2023-05-20T02:48:32.354Z,242.03
2023-05-20T02:49:32.369Z,245.58
2023-05-20T02:50:32.380Z,239.80
2023-05-20T02:51:32.397Z,236.72
2023-05-20T02:52:32.423Z,239.66
2023-05-20T02:53:32.470Z,242.46
2023-05-20T02:54:32.479Z,236.40
2023-05-20T02:55:32.611Z,228.51
2023-05-20T02:56:32.500Z,234.15
2023-05-20T02:57:32.513Z,231.53
2023-05-20T02:58:32.574Z,237.36
2023-05-20T02:59:32.569Z,241.01
2023-05-20T03:00:32.594Z,237.15
2023-05-20T03:01:32.694Z,241.12
2023-05-20T03:02:32.663Z,240.48
2023-05-20T03:03:32.678Z,240.84
2023-05-20T03:04:32.737Z,238.06
2023-05-20T03:05:32.949Z,237.66
2023-05-20T03:06:32.746Z,234.00
2023-05-20T03:07:32.750Z,234.02
2023-05-20T03:08:32.761Z,239.94
2023-05-20T03:09:32.802Z,233.76
2023-05-20T03:10:32.808Z,232.83
2023-05-20T03:11:32.849Z,240.79
2023-05-20T03:12:32.854Z,238.70
2023-05-20T03:13:32.898Z,242.27
2023-05-20T03:14:32.930Z,240.73
2023-05-20T03:15:33.161Z,236.85
2023-05-20T03:16:33.106Z,244.86
2023-05-20T03:17:33.025Z,240.34
2023-05-20T03:18:33.011Z,243.60
2023-05-20T03:19:33.045Z,236.69
2023-05-20T03:20:33.039Z,240.45
2023-05-20T03:21:33.069Z,236.95
2023-05-20T03:22:33.108Z,235.57
2023-05-20T03:23:33.113Z,235.85
2023-05-20T03:24:33.130Z,244.69
2023-05-20T03:25:33.433Z,244.45
2023-05-20T03:26:33.176Z,239.84
2023-05-20T03:27:33.196Z,241.40
2023-05-20T03:28:33.229Z,243.09
2023-05-20T03:29:33.222Z,245.86
2023-05-20T03:30:33.271Z,240.42
2023-05-20T03:31:33.326Z,249.15
2023-05-20T03:32:33.321Z,243.69
2023-05-20T03:33:33.302Z,245.61
2023-05-20T03:34:33.329Z,243.21
2023-05-20T03:35:33.517Z,244.73
2023-05-20T03:36:33.401Z,246.10
2023-05-20T03:37:33.401Z,241.02
2023-05-20T03:38:33.436Z,242.58
2023-05-20T03:39:33.455Z,238.10
2023-05-20T03:40:33.489Z,241.42
2023-05-20T03:41:33.506Z,235.61
2023-05-20T03:42:33.519Z,238.80
2023-05-20T03:43:33.585Z,240.32
2023-05-20T03:44:33.581Z,234.17
2023-05-20T03:45:33.699Z,235.30
2023-05-20T03:46:33.645Z,235.35
2023-05-20T03:47:33.688Z,234.75
2023-05-20T03:48:33.651Z,235.92
2023-05-20T03:49:33.665Z,246.21
2023-05-20T03:50:33.710Z,243.22
2023-05-20T03:51:33.721Z,248.15
2023-05-20T03:52:33.752Z,248.18
2023-05-20T03:53:33.778Z,244.23
2023-05-20T03:54:33.790Z,247.21
2023-05-20T03:55:33.950Z,244.86
2023-05-20T03:56:33.831Z,244.76
2023-05-20T03:57:33.844Z,248.39
2023-05-20T03:58:33.871Z,244.60
2023-05-20T03:59:33.891Z,247.56
2023-05-20T04:00:33.959Z,247.68
2023-05-20T04:01:33.980Z,246.45
2023-05-20T04:02:34.059Z,243.16
2023-05-20T04:03:34.103Z,245.54
2023-05-20T04:04:34.049Z,238.92
2023-05-20T04:05:34.182Z,244.01
2023-05-20T04:06:34.088Z,239.53
2023-05-20T04:07:34.134Z,245.00
2023-05-20T04:08:34.121Z,236.97
2023-05-20T04:09:34.166Z,236.70
2023-05-20T04:10:34.186Z,236.04
2023-05-20T04:11:34.205Z,237.42
2023-05-20T04:12:34.225Z,232.25
2023-05-20T04:13:34.284Z,230.70
2023-05-20T04:14:34.268Z,235.60
2023-05-20T04:15:34.480Z,231.04
2023-05-20T04:16:34.363Z,234.24
2023-05-20T04:17:34.372Z,232.81
2023-05-20T04:18:34.365Z,235.18
2023-05-20T04:19:34.404Z,225.32
2023-05-20T04:20:34.409Z,226.49
2023-05-20T04:21:34.431Z,226.91
2023-05-20T04:22:34.481Z,221.72
2023-05-20T04:23:34.477Z,223.61
2023-05-20T04:24:34.517Z,217.50
2023-05-20T04:25:34.538Z,225.76
2023-05-20T04:26:34.554Z,221.56
2023-05-20T04:27:34.560Z,222.31
2023-05-20T04:28:34.596Z,221.64
2023-05-20T04:29:34.613Z,220.73
2023-05-20T04:30:34.619Z,222.58
2023-05-20T04:31:34.695Z,236.90
2023-05-20T04:32:34.695Z,236.24
2023-05-20T04:33:34.696Z,239.56
2023-05-20T04:34:34.705Z,239.84
2023-05-20T04:35:35.052Z,244.97
2023-05-20T04:36:34.754Z,247.69
2023-05-20T04:37:34.771Z,247.21
2023-05-20T04:38:34.835Z,241.06
2023-05-20T04:39:34.828Z,244.58
2023-05-20T04:40:34.844Z,243.07
2023-05-20T04:41:34.863Z,243.86
2023-05-20T04:42:34.856Z,243.68
2023-05-20T04:43:34.888Z,239.01
2023-05-20T04:44:34.927Z,243.88
2023-05-20T04:45:35.134Z,243.70
2023-05-20T04:46:34.986Z,246.26
2023-05-20T04:47:35.074Z,247.51
2023-05-20T04:48:35.014Z,246.44
2023-05-20T04:49:35.024Z,244.62
2023-05-20T04:50:35.020Z,246.53
2023-05-20T04:51:35.033Z,246.95
2023-05-20T04:52:35.044Z,246.10
2023-05-20T04:53:35.067Z,248.98
2023-05-20T04:54:35.068Z,247.87
2023-05-20T04:55:35.243Z,248.13
2023-05-20T04:56:35.098Z,247.44
2023-05-20T04:57:35.117Z,248.04
2023-05-20T04:58:35.116Z,244.07
2023-05-20T04:59:35.122Z,246.49
2023-05-20T05:00:35.146Z,243.20
2023-05-20T05:01:35.171Z,246.13
2023-05-20T05:02:35.175Z,242.57
2023-05-20T05:03:36.747Z,243.12
2023-05-20T05:04:35.208Z,238.96
2023-05-20T05:05:35.335Z,243.30
2023-05-20T05:06:35.194Z,241.32
2023-05-20T05:07:35.194Z,239.57
2023-05-20T05:08:35.283Z,240.55
2023-05-20T05:09:35.191Z,241.70
2023-05-20T05:10:35.175Z,241.14
2023-05-20T05:11:35.193Z,241.36
2023-05-20T05:12:35.197Z,242.34
2023-05-20T05:13:35.184Z,244.01
2023-05-20T05:14:35.209Z,247.08
2023-05-20T05:15:35.369Z,244.23
2023-05-20T05:16:35.285Z,245.22
2023-05-20T05:17:35.220Z,246.50
2023-05-20T05:18:35.227Z,245.47
2023-05-20T05:19:35.186Z,246.59
2023-05-20T05:20:35.181Z,246.79
2023-05-20T05:21:35.180Z,246.65
2023-05-20T05:22:35.184Z,246.30
2023-05-20T05:23:35.184Z,246.25
2023-05-20T05:24:35.186Z,244.91
2023-05-20T05:25:35.413Z,244.17
2023-05-20T05:26:35.212Z,245.68
2023-05-20T05:27:35.221Z,244.12
2023-05-20T05:28:35.249Z,243.30
2023-05-20T05:29:35.258Z,244.24
2023-05-20T05:30:35.315Z,243.74
2023-05-20T05:31:35.337Z,242.20
2023-05-20T05:32:35.430Z,241.71
2023-05-20T05:33:35.435Z,239.75
2023-05-20T05:34:35.491Z,238.91
2023-05-20T05:35:35.643Z,236.36
2023-05-20T05:36:35.562Z,239.09
2023-05-20T05:37:35.599Z,236.83
2023-05-20T05:38:35.660Z,236.05
2023-05-20T05:39:35.715Z,234.21
2023-05-20T05:40:35.758Z,236.00
2023-05-20T05:41:35.821Z,237.64
2023-05-20T05:42:35.979Z,239.72
2023-05-20T05:43:35.941Z,239.11
2023-05-20T05:44:36.013Z,235.69
2023-05-20T05:45:36.096Z,247.34
2023-05-20T05:46:36.179Z,241.41
2023-05-20T05:47:36.281Z,245.96
2023-05-20T05:48:36.275Z,244.96
2023-05-20T05:49:36.312Z,247.69
2023-05-20T05:50:36.372Z,249.90
2023-05-20T05:51:37.598Z,250.00
2023-05-20T05:52:36.539Z,248.34
2023-05-20T05:53:36.602Z,245.46
2023-05-20T05:54:36.667Z,247.84
2023-05-20T05:55:36.729Z,247.54
2023-05-20T05:56:36.770Z,249.47
2023-05-20T05:57:36.820Z,249.19
2023-05-20T05:58:36.902Z,249.51
2023-05-20T05:59:36.950Z,249.44
2023-05-20T06:00:37.028Z,249.16
2023-05-20T06:01:37.179Z,248.32
2023-05-20T06:02:37.294Z,250.00
2023-05-20T06:03:37.188Z,246.99
2023-05-20T06:04:37.210Z,250.00
2023-05-20T06:05:37.316Z,247.35
2023-05-20T06:06:37.273Z,247.98
2023-05-20T06:07:37.314Z,248.00
2023-05-20T06:08:37.348Z,248.69
2023-05-20T06:09:37.353Z,249.84
2023-05-20T06:10:37.438Z,249.47
2023-05-20T06:11:37.465Z,247.68
2023-05-20T06:12:37.484Z,247.30
2023-05-20T06:13:37.532Z,247.03
2023-05-20T06:14:37.560Z,248.46
2023-05-20T06:15:37.612Z,245.34
2023-05-20T06:16:38.271Z,243.37
2023-05-20T06:17:37.678Z,245.09
2023-05-20T06:18:37.703Z,246.17
2023-05-20T06:19:37.866Z,245.52
2023-05-20T06:20:37.752Z,246.30
2023-05-20T06:21:37.795Z,247.01
2023-05-20T06:22:37.804Z,242.68
2023-05-20T06:23:37.836Z,245.90
2023-05-20T06:24:37.881Z,248.98
2023-05-20T06:25:37.906Z,248.10
2023-05-20T06:26:37.941Z,248.84
2023-05-20T06:27:37.963Z,245.62
2023-05-20T06:28:38.022Z,248.95
2023-05-20T06:29:38.050Z,245.68
2023-05-20T06:30:38.074Z,242.21
2023-05-20T06:31:38.113Z,245.19
2023-05-20T06:32:38.198Z,245.57
2023-05-20T06:33:38.184Z,245.61
2023-05-20T06:34:38.218Z,241.70
2023-05-20T06:35:38.245Z,246.57
2023-05-20T06:36:38.299Z,246.84
2023-05-20T06:37:38.345Z,247.81
2023-05-20T06:38:38.386Z,246.91
2023-05-20T06:39:38.382Z,243.42
2023-05-20T06:40:38.413Z,242.23
2023-05-20T06:41:38.441Z,241.89
2023-05-20T06:42:38.487Z,242.05
2023-05-20T06:43:38.503Z,239.15
2023-05-20T06:44:38.537Z,236.38
2023-05-20T06:45:38.542Z,237.89
2023-05-20T06:46:38.712Z,240.18
2023-05-20T06:47:38.669Z,234.28
2023-05-20T06:48:38.636Z,235.88
2023-05-20T06:49:38.662Z,233.66
2023-05-20T06:50:38.703Z,235.09
2023-05-20T06:51:38.704Z,232.20
2023-05-20T06:52:38.798Z,234.43
2023-05-20T06:53:38.775Z,235.67
2023-05-20T06:54:38.807Z,234.83
2023-05-20T06:55:38.826Z,232.96
2023-05-20T06:56:38.907Z,232.68
2023-05-20T06:57:38.857Z,235.33
2023-05-20T06:58:38.887Z,234.62
2023-05-20T06:59:38.911Z,233.77
2023-05-20T07:00:38.923Z,230.92
2023-05-20T07:01:38.987Z,231.84
2023-05-20T07:02:39.046Z,230.43
2023-05-20T07:03:39.063Z,233.12
2023-05-20T07:04:39.048Z,230.63
2023-05-20T07:05:39.069Z,233.45
2023-05-20T07:06:39.073Z,234.88
2023-05-20T07:07:39.134Z,234.69
2023-05-20T07:08:39.127Z,236.96
2023-05-20T07:09:39.154Z,237.25
2023-05-20T07:10:39.194Z,236.50
2023-05-20T07:11:39.208Z,235.85
2023-05-20T07:12:39.254Z,234.31
2023-05-20T07:13:39.281Z,233.71
2023-05-20T07:14:39.300Z,233.08
2023-05-20T07:15:39.313Z,231.08
2023-05-20T07:16:39.418Z,231.68
2023-05-20T07:17:39.391Z,230.90
2023-05-20T07:18:39.475Z,232.92
2023-05-20T07:19:39.419Z,233.84
2023-05-20T07:20:39.462Z,236.20
2023-05-20T07:21:39.473Z,235.33
2023-05-20T07:22:39.528Z,236.50
2023-05-20T07:23:39.526Z,233.19
2023-05-20T07:24:39.581Z,234.72
2023-05-20T07:25:39.569Z,233.01
2023-05-20T07:26:39.592Z,232.47
2023-05-20T07:27:39.636Z,232.50
2023-05-20T07:28:39.659Z,231.04
2023-05-20T07:29:39.668Z,230.37
2023-05-20T07:30:39.706Z,235.15
2023-05-20T07:31:39.738Z,235.90
2023-05-20T07:32:39.806Z,235.19
2023-05-20T07:33:39.733Z,238.72
2023-05-20T07:34:39.816Z,238.70
2023-05-20T07:35:39.748Z,238.02
2023-05-20T07:36:39.744Z,238.68
2023-05-20T07:37:39.762Z,235.98
2023-05-20T07:38:41.165Z,238.48
2023-05-20T07:39:39.769Z,238.21
2023-05-20T07:40:39.749Z,237.06
2023-05-20T07:41:39.757Z,235.06
2023-05-20T07:42:39.735Z,233.11
2023-05-20T07:43:39.747Z,232.29
2023-05-20T07:44:39.785Z,232.99
2023-05-20T07:45:39.777Z,233.14
2023-05-20T07:46:39.844Z,233.47
2023-05-20T07:47:39.737Z,229.98
2023-05-20T07:48:39.740Z,228.65
2023-05-20T07:49:39.700Z,227.85
2023-05-20T07:50:39.693Z,228.14
2023-05-20T07:51:39.678Z,228.56
2023-05-20T07:53:39.682Z,227.05
2023-05-20T07:54:39.660Z,227.53
2023-05-20T07:55:39.666Z,229.28
2023-05-20T07:56:39.655Z,233.37
2023-05-20T07:57:39.647Z,234.11
2023-05-20T07:58:39.665Z,231.70
2023-05-20T07:59:39.635Z,236.25
2023-05-20T08:00:39.633Z,229.91
2023-05-20T08:01:39.629Z,225.60
2023-05-20T08:02:39.726Z,224.99
2023-05-20T08:03:39.653Z,223.43
2023-05-20T08:04:39.691Z,223.21
2023-05-20T08:05:39.587Z,221.06
2023-05-20T08:06:39.587Z,218.23
2023-05-20T08:07:39.589Z,214.29
2023-05-20T08:08:39.573Z,209.83
2023-05-20T08:09:39.577Z,205.76
2023-05-20T08:10:39.575Z,201.23
2023-05-20T08:11:39.562Z,200.48
2023-05-20T08:12:39.535Z,201.21
2023-05-20T08:13:39.571Z,202.74
2023-05-20T08:14:39.540Z,204.07
2023-05-20T08:15:39.527Z,209.52
2023-05-20T08:16:39.556Z,208.67
2023-05-20T08:17:39.600Z,209.66
2023-05-20T08:18:39.624Z,215.60
2023-05-20T08:19:39.512Z,216.47
2023-05-20T08:20:39.539Z,216.76
2023-05-20T08:21:39.467Z,211.18
2023-05-20T08:22:39.477Z,205.86
2023-05-20T08:23:40.678Z,207.55
2023-05-20T08:24:39.469Z,205.78
2023-05-20T08:25:39.462Z,205.49
2023-05-20T08:26:39.441Z,202.37
2023-05-20T08:27:39.445Z,198.89
2023-05-20T08:28:39.424Z,196.58
2023-05-20T08:29:39.414Z,192.37
2023-05-20T08:30:39.404Z,189.07
2023-05-20T08:31:39.516Z,187.14
2023-05-20T08:32:39.467Z,189.81
2023-05-20T08:33:39.398Z,189.73
2023-05-20T08:34:39.398Z,187.41
2023-05-20T08:35:39.413Z,187.56
2023-05-20T08:36:39.386Z,186.19
2023-05-20T08:37:39.389Z,191.29
2023-05-20T08:38:39.401Z,188.67
2023-05-20T08:39:39.389Z,194.33
2023-05-20T08:40:39.347Z,189.91
2023-05-20T08:41:39.375Z,185.04
2023-05-20T08:42:39.401Z,190.50
2023-05-20T08:43:39.490Z,192.65
2023-05-20T08:44:39.546Z,185.29
2023-05-20T08:45:39.599Z,193.26
2023-05-20T08:46:39.672Z,195.44
2023-05-20T08:47:39.776Z,196.85
2023-05-20T08:48:39.791Z,199.62
2023-05-20T08:49:39.828Z,198.81
2023-05-20T08:50:39.881Z,197.34
2023-05-20T08:51:39.946Z,198.55
2023-05-20T08:52:39.992Z,193.02
2023-05-20T08:53:40.055Z,187.87
2023-05-20T08:54:40.079Z,190.42
2023-05-20T08:55:40.130Z,191.70
2023-05-20T08:56:40.174Z,196.01
2023-05-20T08:57:40.247Z,187.35
2023-05-20T08:58:40.286Z,176.52
2023-05-20T08:59:40.338Z,174.85
2023-05-20T09:00:40.397Z,178.77
2023-05-20T09:01:40.494Z,183.22
2023-05-20T09:02:40.514Z,176.02
2023-05-20T09:03:40.547Z,190.59
2023-05-20T09:04:40.619Z,193.31
2023-05-20T09:05:40.665Z,186.94
2023-05-20T09:06:40.681Z,179.51
2023-05-20T09:07:40.720Z,165.73
2023-05-20T09:08:40.772Z,176.21
2023-05-20T09:09:40.794Z,170.04
2023-05-20T09:10:40.870Z,164.89
2023-05-20T09:11:40.871Z,164.11
2023-05-20T09:12:40.934Z,152.85
2023-05-20T09:13:41.001Z,152.90
2023-05-20T09:14:40.995Z,152.74
2023-05-20T09:15:41.051Z,163.06
2023-05-20T09:16:41.178Z,165.83
2023-05-20T09:17:41.138Z,148.17
2023-05-20T09:18:41.244Z,150.59
2023-05-20T09:19:41.207Z,156.56
2023-05-20T09:20:41.256Z,159.18
2023-05-20T09:21:41.241Z,145.44
2023-05-20T09:22:41.296Z,150.55
2023-05-20T09:23:41.297Z,161.00
2023-05-20T09:24:41.456Z,158.40
2023-05-20T09:25:41.365Z,158.60
2023-05-20T09:26:41.377Z,155.86
2023-05-20T09:27:41.400Z,147.55
2023-05-20T09:28:41.440Z,140.31
2023-05-20T09:29:41.456Z,129.44
2023-05-20T09:30:42.409Z,142.32
2023-05-20T09:31:41.543Z,145.97
2023-05-20T09:32:41.621Z,134.60
2023-05-20T09:33:41.547Z,129.35
2023-05-20T09:34:41.593Z,136.63
2023-05-20T09:35:41.643Z,142.69
2023-05-20T09:36:41.656Z,146.38
2023-05-20T09:37:41.658Z,143.22
2023-05-20T09:38:41.692Z,144.00
2023-05-20T09:39:41.735Z,158.02
2023-05-20T09:40:41.823Z,159.60
2023-05-20T09:41:41.794Z,148.52
2023-05-20T09:42:41.783Z,146.98
2023-05-20T09:43:41.840Z,150.12
2023-05-20T09:44:41.836Z,147.80
2023-05-20T09:45:41.943Z,147.96
2023-05-20T09:46:41.946Z,143.74
2023-05-20T09:47:41.936Z,155.99
2023-05-20T09:48:41.949Z,150.37
2023-05-20T09:49:41.972Z,146.20
2023-05-20T09:50:42.006Z,142.41
2023-05-20T09:51:42.012Z,151.55
2023-05-20T09:52:42.055Z,146.23
2023-05-20T09:53:42.066Z,139.58
2023-05-20T09:54:42.112Z,134.25
2023-05-20T09:55:42.120Z,151.43
2023-05-20T09:56:42.144Z,156.07
2023-05-20T09:57:42.181Z,162.04
2023-05-20T09:58:42.203Z,158.70
2023-05-20T09:59:42.235Z,162.00
2023-05-20T10:00:42.262Z,163.35
2023-05-20T10:01:42.302Z,158.70
2023-05-20T10:02:42.357Z,146.14
2023-05-20T10:03:44.276Z,150.22
2023-05-20T10:04:42.324Z,156.37
2023-05-20T10:05:42.360Z,150.02
2023-05-20T10:06:42.358Z,148.83
2023-05-20T10:07:42.751Z,152.77
2023-05-20T10:08:42.410Z,156.18
2023-05-20T10:09:42.404Z,155.89
2023-05-20T10:10:42.441Z,155.68
2023-05-20T10:11:42.445Z,149.45
2023-05-20T10:12:42.467Z,147.51
2023-05-20T10:13:42.491Z,151.63
2023-05-20T10:14:42.510Z,143.14
2023-05-20T10:15:42.560Z,149.05
2023-05-20T10:16:42.519Z,142.05
2023-05-20T10:17:42.567Z,148.04
2023-05-20T10:18:42.588Z,149.17
2023-05-20T10:19:42.583Z,151.55
2023-05-20T10:20:42.594Z,147.25
2023-05-20T10:21:42.601Z,152.35
2023-05-20T10:22:42.635Z,153.75
2023-05-20T10:23:42.628Z,150.74
2023-05-20T10:24:42.607Z,150.79
2023-05-20T10:25:42.626Z,146.20
2023-05-20T10:26:42.646Z,143.28
2023-05-20T10:27:42.676Z,142.13
2023-05-20T10:28:42.673Z,146.17
2023-05-20T10:29:42.668Z,148.11
2023-05-20T10:30:44.470Z,142.92
2023-05-20T10:31:42.675Z,145.86
2023-05-20T10:32:42.779Z,143.97
2023-05-20T10:33:42.776Z,140.06
2023-05-20T10:34:42.718Z,143.32
2023-05-20T10:35:42.714Z,144.20
2023-05-20T10:36:42.884Z,136.86
2023-05-20T10:37:42.787Z,139.62
2023-05-20T10:38:42.766Z,144.23
2023-05-20T10:39:42.770Z,135.13
2023-05-20T10:40:42.760Z,132.98
2023-05-20T10:41:42.778Z,140.34
2023-05-20T10:42:42.791Z,141.93
2023-05-20T10:43:42.806Z,135.20
2023-05-20T10:44:42.807Z,136.11
2023-05-20T10:45:42.795Z,123.77
2023-05-20T10:47:43.899Z,126.60
2023-05-20T10:48:42.933Z,128.23
2023-05-20T10:49:42.787Z,129.02
2023-05-20T10:50:42.780Z,119.02
2023-05-20T10:51:42.791Z,109.83
2023-05-20T10:52:42.782Z,106.11
2023-05-20T10:53:42.859Z,107.24
2023-05-20T10:54:42.766Z,112.70
2023-05-20T10:55:42.765Z,103.41
2023-05-20T10:56:42.749Z,100.04
2023-05-20T10:57:42.757Z,83.10
2023-05-20T10:58:42.738Z,87.13
2023-05-20T10:59:42.751Z,87.63
2023-05-20T11:00:42.757Z,90.77
2023-05-20T11:01:42.784Z,84.93
2023-05-20T11:02:42.769Z,89.41
2023-05-20T11:03:42.792Z,85.10
2023-05-20T11:04:42.703Z,75.47
2023-05-20T11:05:42.705Z,82.46
2023-05-20T11:06:42.677Z,80.22
2023-05-20T11:07:42.689Z,76.16
2023-05-20T11:08:42.681Z,70.32
2023-05-20T11:09:42.654Z,68.09
2023-05-20T11:10:42.645Z,58.26
2023-05-20T11:11:42.644Z,51.46
2023-05-20T11:12:42.742Z,56.74
2023-05-20T11:13:42.679Z,68.37
2023-05-20T11:14:42.647Z,66.13
2023-05-20T11:15:42.652Z,47.32
2023-05-20T11:16:42.670Z,53.13
2023-05-20T11:17:42.657Z,54.96
2023-05-20T11:18:42.683Z,38.75
2023-05-20T11:19:42.604Z,41.02
2023-05-20T11:20:42.613Z,38.92
2023-05-20T11:21:42.591Z,39.83
2023-05-20T11:22:42.602Z,41.42
2023-05-20T11:23:42.612Z,33.19
2023-05-20T11:24:42.631Z,28.40
2023-05-20T11:25:42.688Z,31.77
2023-05-20T11:26:42.678Z,28.35
2023-05-20T11:27:42.687Z,31.96
2023-05-20T11:28:42.733Z,28.71
2023-05-20T11:29:42.713Z,30.67
2023-05-20T11:30:42.712Z,27.21
2023-05-20T11:31:42.765Z,29.64
2023-05-20T11:32:42.772Z,34.56
2023-05-20T11:33:42.788Z,26.62
2023-05-20T11:34:42.778Z,34.86
2023-05-20T11:35:42.800Z,27.46
2023-05-20T11:36:42.815Z,26.93
2023-05-20T11:37:42.825Z,30.81
2023-05-20T11:38:42.875Z,36.38
2023-05-20T11:39:42.850Z,35.85
2023-05-20T11:40:50.478Z,32.79
2023-05-20T11:41:43.894Z,28.58
2023-05-20T11:42:42.874Z,17.31
2023-05-20T11:43:42.873Z,17.91
2023-05-20T11:44:42.840Z,18.67
2023-05-20T11:45:42.841Z,16.44
2023-05-20T11:46:42.997Z,25.51
2023-05-20T11:47:42.834Z,25.39
2023-05-20T11:48:42.840Z,32.93
2023-05-20T11:49:42.855Z,36.74
2023-05-20T11:50:42.801Z,26.81
2023-05-20T11:51:42.818Z,31.80
2023-05-20T11:52:42.798Z,31.22
2023-05-20T11:53:42.827Z,25.88
2023-05-20T11:54:42.783Z,33.20
2023-05-20T11:55:42.777Z,30.94
2023-05-20T11:56:42.767Z,27.21
2023-05-20T11:57:42.756Z,31.81
2023-05-20T11:58:42.777Z,25.57
2023-05-20T11:59:42.763Z,35.47
2023-05-20T12:00:50.519Z,29.49
2023-05-20T12:01:43.816Z,29.55
2023-05-20T12:02:42.784Z,20.90
2023-05-20T12:03:42.902Z,16.42
2023-05-20T12:04:42.741Z,22.19
2023-05-20T12:05:42.706Z,8.68
2023-05-20T12:06:42.722Z,25.17
2023-05-20T12:07:42.696Z,27.29
2023-05-20T12:08:42.681Z,29.86
2023-05-20T12:09:42.694Z,36.00
2023-05-20T12:10:42.691Z,34.96
2023-05-20T12:11:42.680Z,32.07
2023-05-20T12:12:42.660Z,27.40
2023-05-20T12:13:42.691Z,25.25
2023-05-20T12:14:42.656Z,34.92
2023-05-20T12:15:42.660Z,31.88
2023-05-20T12:16:42.671Z,34.66
2023-05-20T12:17:42.648Z,30.40
2023-05-20T12:18:42.645Z,27.14
2023-05-20T12:19:42.675Z,25.65
2023-05-20T12:20:42.650Z,27.06
2023-05-20T12:21:42.677Z,25.05
2023-05-20T12:22:42.686Z,33.76
2023-05-20T12:23:42.751Z,32.55
2023-05-20T12:24:42.761Z,24.42
2023-05-20T12:25:42.776Z,28.80
2023-05-20T12:26:42.808Z,31.81
2023-05-20T12:27:42.827Z,33.23
2023-05-20T12:28:42.867Z,31.18
2023-05-20T12:29:42.924Z,34.02
2023-05-20T12:30:42.921Z,27.34
2023-05-20T12:31:42.986Z,27.85
2023-05-20T12:32:43.005Z,31.85
2023-05-20T12:33:43.023Z,29.61